createdAt,value
2022-10-22T00:00:18.783Z,100836.97
2022-10-22T00:00:50.594Z,100835.34
2022-10-22T00:01:22.989Z,100840.66
2022-10-22T00:01:54.693Z,100842.50
2022-10-22T00:02:27.829Z,100835.34
2022-10-22T00:02:59.663Z,100838.00
2022-10-22T00:03:31.241Z,100838.22
2022-10-22T00:04:02.750Z,100841.06
2022-10-22T00:04:35.662Z,100843.53
2022-10-22T00:05:07.933Z,100848.03
2022-10-22T00:05:39.565Z,100852.94
2022-10-22T00:06:11.085Z,100845.19
2022-10-22T00:06:44.967Z,100848.66
2022-10-22T00:07:18.053Z,100851.31
2022-10-22T00:07:49.528Z,100847.22
2022-10-22T00:08:21.056Z,100848.03
2022-10-22T00:08:53.037Z,100842.91
2022-10-22T00:09:24.593Z,100841.28
2022-10-22T00:09:56.361Z,100843.72
2022-10-22T00:10:27.979Z,100850.88
2022-10-22T00:10:59.443Z,100848.63
2022-10-22T00:11:30.959Z,100846.56
2022-10-22T00:12:02.467Z,100842.13
2022-10-22T00:12:34.196Z,100848.84
2022-10-22T00:13:05.984Z,100844.78
2022-10-22T00:13:37.553Z,100844.78
2022-10-22T00:14:09.369Z,100850.47
2022-10-22T00:14:41.006Z,100853.97
2022-10-22T00:15:12.619Z,100850.06
2022-10-22T00:15:44.307Z,100851.69
2022-10-22T00:16:15.884Z,100850.88
2022-10-22T00:16:47.425Z,100848.22
2022-10-22T00:17:18.958Z,100853.53
2022-10-22T00:17:50.616Z,100855.38
2022-10-22T00:18:22.138Z,100856.41
2022-10-22T00:18:53.707Z,100858.03
2022-10-22T00:19:25.285Z,100861.72
2022-10-22T00:19:56.842Z,100858.66
2022-10-22T00:20:28.513Z,100863.16
2022-10-22T00:21:00.094Z,100856.22
2022-10-22T00:21:31.644Z,100855.78
2022-10-22T00:22:05.713Z,100861.91
2022-10-22T00:22:37.274Z,100858.44
2022-10-22T00:23:08.881Z,100862.97
2022-10-22T00:23:42.590Z,100863.38
2022-10-22T00:24:14.163Z,100863.97
2022-10-22T00:24:45.659Z,100868.06
2022-10-22T00:25:17.168Z,100866.41
2022-10-22T00:25:48.695Z,100870.53
2022-10-22T00:26:20.341Z,100870.31
2022-10-22T00:26:52.159Z,100872.56
2022-10-22T00:27:23.778Z,100867.66
2022-10-22T00:27:55.317Z,100867.44
2022-10-22T00:28:26.928Z,100865.59
2022-10-22T00:28:58.630Z,100870.91
2022-10-22T00:29:30.333Z,100873.16
2022-10-22T00:30:01.892Z,100876.66
2022-10-22T00:30:33.504Z,100871.13
2022-10-22T00:31:05.912Z,100880.53
2022-10-22T00:31:37.630Z,100875.22
2022-10-22T00:32:09.230Z,100876.84
2022-10-22T00:32:40.939Z,100879.31
2022-10-22T00:33:12.893Z,100882.56
2022-10-22T00:33:46.897Z,100882.56
2022-10-22T00:34:21.253Z,100880.09
2022-10-22T00:34:52.769Z,100878.06
2022-10-22T00:35:24.411Z,100875.19
2022-10-22T00:35:56.179Z,100882.13
2022-10-22T00:36:27.962Z,100879.69
2022-10-22T00:36:59.525Z,100875.38
2022-10-22T00:37:31.416Z,100880.91
2022-10-22T00:38:02.991Z,100877.47
2022-10-22T00:38:34.886Z,100871.53
2022-10-22T00:39:06.403Z,100874.19
2022-10-22T00:39:37.930Z,100869.69
2022-10-22T00:40:10.334Z,100878.06
2022-10-22T00:40:41.991Z,100875.81
2022-10-22T00:41:13.566Z,100876.00
2022-10-22T00:41:47.195Z,100877.84
2022-10-22T00:42:21.278Z,100877.03
2022-10-22T00:42:52.797Z,100880.72
2022-10-22T00:43:24.594Z,100879.06
2022-10-22T00:44:01.441Z,100873.75
2022-10-22T00:45:01.564Z,100873.38
2022-10-22T00:45:33.128Z,100877.47
2022-10-22T00:46:04.809Z,100879.91
2022-10-22T00:46:36.385Z,100876.25
2022-10-22T00:47:07.948Z,100877.47
2022-10-22T00:47:43.101Z,100872.16
2022-10-22T00:48:22.390Z,100873.81
2022-10-22T00:48:55.366Z,100875.44
2022-10-22T00:49:26.911Z,100869.31
2022-10-22T00:49:59.190Z,100868.88
2022-10-22T00:50:52.660Z,100859.88
2022-10-22T00:51:26.248Z,100867.03
2022-10-22T00:51:58.015Z,100867.84
2022-10-22T00:52:29.547Z,100867.03
2022-10-22T00:53:02.838Z,100869.69
2022-10-22T00:53:38.206Z,100866.84
2022-10-22T00:54:10.022Z,100862.31
2022-10-22T00:54:42.480Z,100871.34
2022-10-22T00:55:14.748Z,100865.41
2022-10-22T00:55:48.281Z,100863.56
2022-10-22T00:56:20.845Z,100867.47
2022-10-22T00:56:52.405Z,100866.63
2022-10-22T00:57:24.042Z,100864.19
2022-10-22T00:57:56.796Z,100858.25
2022-10-22T00:58:30.082Z,100857.63
2022-10-22T00:59:02.385Z,100858.66
2022-10-22T00:59:34.001Z,100858.03
2022-10-22T01:00:06.806Z,100858.25
2022-10-22T01:00:38.432Z,100860.28
2022-10-22T01:01:14.471Z,100864.78
2022-10-22T01:01:46.840Z,100863.97
2022-10-22T01:02:18.509Z,100862.31
2022-10-22T01:02:51.616Z,100865.59
2022-10-22T01:03:23.745Z,100856.41
2022-10-22T01:03:55.807Z,100866.44
2022-10-22T01:04:27.348Z,100860.50
2022-10-22T01:04:58.911Z,100858.88
2022-10-22T01:05:33.319Z,100858.44
2022-10-22T01:06:06.077Z,100861.53
2022-10-22T01:06:37.621Z,100867.25
2022-10-22T01:07:16.965Z,100865.81
2022-10-22T01:07:51.764Z,100871.34
2022-10-22T01:08:36.952Z,100872.38
2022-10-22T01:09:26.624Z,100869.94
2022-10-22T01:10:13.336Z,100873.00
2022-10-22T01:10:54.700Z,100869.72
2022-10-22T01:11:44.436Z,100870.16
2022-10-22T01:12:24.584Z,100868.91
2022-10-22T01:13:08.013Z,100864.41
2022-10-22T01:14:02.552Z,100867.25
2022-10-22T01:15:06.014Z,100863.19
2022-10-22T01:15:42.753Z,100868.28
2022-10-22T01:16:24.501Z,100865.63
2022-10-22T01:17:06.770Z,100870.56
2022-10-22T01:18:10.865Z,100870.56
2022-10-22T01:19:03.682Z,100866.88
2022-10-22T01:20:12.006Z,100867.91
2022-10-22T01:20:58.351Z,100864.19
2022-10-22T01:21:44.448Z,100860.69
2022-10-22T01:22:16.073Z,100861.72
2022-10-22T01:23:09.102Z,100872.78
2022-10-22T01:24:07.970Z,100856.22
2022-10-22T01:24:59.104Z,100868.91
2022-10-22T01:26:05.254Z,100856.44
2022-10-22T01:27:00.460Z,100860.31
2022-10-22T01:27:43.807Z,100855.00
2022-10-22T01:28:54.603Z,100864.81
2022-10-22T01:29:30.897Z,100862.16
2022-10-22T01:30:10.562Z,100867.50
2022-10-22T01:30:42.829Z,100861.16
2022-10-22T01:31:16.046Z,100861.16
2022-10-22T01:31:53.459Z,100861.16
2022-10-22T01:32:26.276Z,100865.84
2022-10-22T01:33:01.819Z,100864.22
2022-10-22T01:33:33.831Z,100860.34
2022-10-22T01:34:06.587Z,100859.94
2022-10-22T01:34:40.246Z,100865.25
2022-10-22T01:35:14.520Z,100863.56
2022-10-22T01:35:46.449Z,100866.88
2022-10-22T01:36:19.254Z,100864.81
2022-10-22T01:36:51.989Z,100863.19
2022-10-22T01:37:26.856Z,100864.00
2022-10-22T01:38:00.966Z,100869.13
2022-10-22T01:38:32.861Z,100869.72
2022-10-22T01:39:05.546Z,100868.91
2022-10-22T01:39:38.081Z,100862.78
2022-10-22T01:40:11.039Z,100861.16
2022-10-22T01:40:43.011Z,100856.84
2022-10-22T01:41:14.999Z,100867.50
2022-10-22T01:41:46.802Z,100866.88
2022-10-22T01:42:18.528Z,100859.94
2022-10-22T01:43:01.912Z,100867.25
2022-10-22T01:43:33.521Z,100862.38
2022-10-22T01:44:05.029Z,100867.69
2022-10-22T01:44:37.381Z,100863.19
2022-10-22T01:45:14.261Z,100864.81
2022-10-22T01:45:51.377Z,100862.38
2022-10-22T01:46:24.711Z,100858.06
2022-10-22T01:47:25.254Z,100863.38
2022-10-22T01:48:04.320Z,100860.72
2022-10-22T01:49:08.655Z,100856.44
2022-10-22T01:50:06.352Z,100859.91
2022-10-22T01:50:44.276Z,100871.16
2022-10-22T01:51:25.095Z,100863.78
2022-10-22T01:52:28.870Z,100868.50
2022-10-22T01:53:19.318Z,100866.06
2022-10-22T01:54:05.000Z,100873.00
2022-10-22T01:54:53.533Z,100862.56
2022-10-22T01:55:36.449Z,100860.75
2022-10-22T01:56:21.005Z,100863.19
2022-10-22T01:56:58.182Z,100861.13
2022-10-22T01:58:18.880Z,100858.69
2022-10-22T01:59:22.452Z,100850.94
2022-10-22T02:00:01.679Z,100860.34
2022-10-22T02:00:38.875Z,100856.66
2022-10-22T02:01:16.222Z,100865.66
2022-10-22T02:02:02.659Z,100855.22
2022-10-22T02:02:52.579Z,100853.59
2022-10-22T02:03:34.443Z,100861.75
2022-10-22T02:04:17.531Z,100854.22
2022-10-22T02:04:58.128Z,100858.28
2022-10-22T02:05:38.820Z,100854.81
2022-10-22T02:06:14.911Z,100860.13
2022-10-22T02:06:48.286Z,100861.94
2022-10-22T02:07:23.443Z,100856.22
2022-10-22T02:08:10.396Z,100860.31
2022-10-22T02:08:43.332Z,100865.81
2022-10-22T02:09:16.253Z,100861.94
2022-10-22T02:09:49.298Z,100872.41
2022-10-22T02:10:21.758Z,100873.00
2022-10-22T02:10:53.592Z,100868.50
2022-10-22T02:11:25.095Z,100872.81
2022-10-22T02:11:57.356Z,100872.19
2022-10-22T02:12:29.568Z,100872.19
2022-10-22T02:13:01.615Z,100874.03
2022-10-22T02:13:54.356Z,100868.91
2022-10-22T02:14:28.705Z,100875.88
2022-10-22T02:15:00.852Z,100875.88
2022-10-22T02:15:33.300Z,100868.91
2022-10-22T02:16:07.669Z,100868.28
2022-10-22T02:16:44.257Z,100872.19
2022-10-22T02:17:20.443Z,100867.50
2022-10-22T02:17:53.364Z,100863.59
2022-10-22T02:18:28.404Z,100868.09
2022-10-22T02:19:03.744Z,100863.59
2022-10-22T02:19:57.263Z,100866.06
2022-10-22T02:20:32.008Z,100866.06
2022-10-22T02:21:03.638Z,100861.56
2022-10-22T02:21:35.558Z,100866.06
2022-10-22T02:22:07.482Z,100860.94
2022-10-22T02:22:40.220Z,100871.78
2022-10-22T02:23:12.311Z,100862.78
2022-10-22T02:23:44.286Z,100874.63
2022-10-22T02:24:16.572Z,100858.91
2022-10-22T02:24:49.077Z,100870.56
2022-10-22T02:25:22.518Z,100856.63
2022-10-22T02:26:02.529Z,100869.75
2022-10-22T02:26:40.549Z,100864.59
2022-10-22T02:27:24.232Z,100864.00
2022-10-22T02:28:13.634Z,100856.03
2022-10-22T02:29:02.448Z,100862.34
2022-10-22T02:29:35.760Z,100864.00
2022-10-22T02:30:13.372Z,100860.31
2022-10-22T02:30:48.707Z,100856.03
2022-10-22T02:31:24.761Z,100856.25
2022-10-22T02:31:58.696Z,100858.28
2022-10-22T02:32:45.494Z,100863.59
2022-10-22T02:33:20.849Z,100855.84
2022-10-22T02:33:55.174Z,100853.38
2022-10-22T02:34:30.826Z,100851.75
2022-10-22T02:35:03.252Z,100855.44
2022-10-22T02:35:35.562Z,100857.06
2022-10-22T02:36:08.089Z,100854.41
2022-10-22T02:36:40.970Z,100856.63
2022-10-22T02:37:12.626Z,100851.31
2022-10-22T02:37:44.304Z,100852.16
2022-10-22T02:38:16.315Z,100858.28
2022-10-22T02:38:49.348Z,100858.69
2022-10-22T02:39:21.390Z,100857.03
2022-10-22T02:39:53.598Z,100860.31
2022-10-22T02:40:25.639Z,100864.00
2022-10-22T02:40:57.659Z,100863.38
2022-10-22T02:41:29.713Z,100856.44
2022-10-22T02:42:02.460Z,100861.75
2022-10-22T02:42:35.010Z,100858.06
2022-10-22T02:43:06.755Z,100862.34
2022-10-22T02:43:50.373Z,100859.09
2022-10-22T02:44:22.503Z,100861.75
2022-10-22T02:44:54.187Z,100863.38
2022-10-22T02:45:25.743Z,100865.22
2022-10-22T02:45:57.411Z,100859.91
2022-10-22T02:46:31.012Z,100864.41
2022-10-22T02:47:02.539Z,100862.75
2022-10-22T02:47:34.055Z,100854.19
2022-10-22T02:48:05.975Z,100872.16
2022-10-22T02:48:37.911Z,100865.41
2022-10-22T02:49:09.547Z,100862.75
2022-10-22T02:49:41.074Z,100863.19
2022-10-22T02:50:12.783Z,100865.00
2022-10-22T02:50:44.276Z,100857.03
2022-10-22T02:51:15.830Z,100866.03
2022-10-22T02:51:47.328Z,100869.72
2022-10-22T02:52:19.153Z,100863.59
2022-10-22T02:52:50.991Z,100859.09
2022-10-22T02:53:22.543Z,100860.13
2022-10-22T02:53:54.114Z,100864.81
2022-10-22T02:54:25.825Z,100867.66
2022-10-22T02:54:57.336Z,100862.56
2022-10-22T02:55:28.912Z,100866.03
2022-10-22T02:56:00.669Z,100864.19
2022-10-22T02:56:33.045Z,100859.09
2022-10-22T02:57:04.856Z,100859.91
2022-10-22T02:57:36.395Z,100865.22
2022-10-22T02:58:07.932Z,100863.59
2022-10-22T02:58:39.580Z,100862.94
2022-10-22T02:59:11.157Z,100867.25
2022-10-22T02:59:42.777Z,100867.25
2022-10-22T03:00:14.711Z,100863.59
2022-10-22T03:00:46.267Z,100871.75
2022-10-22T03:01:17.995Z,100861.31
2022-10-22T03:01:49.645Z,100867.44
2022-10-22T03:02:21.187Z,100863.97
2022-10-22T03:02:52.694Z,100874.97
2022-10-22T03:03:24.195Z,100857.63
2022-10-22T03:03:55.689Z,100859.06
2022-10-22T03:04:27.312Z,100864.97
2022-10-22T03:04:59.006Z,100859.66
2022-10-22T03:05:30.508Z,100856.19
2022-10-22T03:06:02.072Z,100866.00
2022-10-22T03:06:33.595Z,100865.78
2022-10-22T03:07:05.155Z,100862.31
2022-10-22T03:07:36.809Z,100864.16
2022-10-22T03:08:08.324Z,100865.19
2022-10-22T03:08:40.899Z,100860.06
2022-10-22T03:09:13.175Z,100858.03
2022-10-22T03:09:44.817Z,100862.75
2022-10-22T03:10:16.394Z,100864.41
2022-10-22T03:10:47.901Z,100872.56
2022-10-22T03:11:19.433Z,100864.78
2022-10-22T03:11:51.242Z,100869.25
2022-10-22T03:12:22.763Z,100862.94
2022-10-22T03:12:54.551Z,100862.31
2022-10-22T03:13:26.195Z,100864.38
2022-10-22T03:13:57.680Z,100862.72
2022-10-22T03:14:29.191Z,100866.59
2022-10-22T03:15:00.815Z,100859.66
2022-10-22T03:15:32.355Z,100860.69
2022-10-22T03:16:04.054Z,100862.72
2022-10-22T03:16:35.573Z,100868.66
2022-10-22T03:17:07.145Z,100863.34
2022-10-22T03:17:38.904Z,100860.28
2022-10-22T03:18:10.764Z,100860.06
2022-10-22T03:18:42.321Z,100858.44
2022-10-22T03:19:13.853Z,100861.91
2022-10-22T03:19:45.350Z,100864.56
2022-10-22T03:20:17.060Z,100859.25
2022-10-22T03:20:48.613Z,100855.16
2022-10-22T03:21:31.024Z,100859.66
2022-10-22T03:22:05.894Z,100865.59
2022-10-22T03:22:38.862Z,100854.16
2022-10-22T03:23:11.942Z,100862.72
2022-10-22T03:23:43.809Z,100858.03
2022-10-22T03:24:18.381Z,100864.41
2022-10-22T03:24:53.066Z,100857.03
2022-10-22T03:25:27.425Z,100862.75
2022-10-22T03:26:00.816Z,100865.63
2022-10-22T03:26:32.792Z,100857.88
2022-10-22T03:27:04.533Z,100864.19
2022-10-22T03:27:37.578Z,100858.06
2022-10-22T03:28:11.121Z,100865.22
2022-10-22T03:28:43.079Z,100870.72
2022-10-22T03:29:15.892Z,100864.19
2022-10-22T03:29:48.403Z,100867.88
2022-10-22T03:30:20.127Z,100871.91
2022-10-22T03:30:51.640Z,100865.78
2022-10-22T03:31:23.302Z,100864.78
2022-10-22T03:31:54.940Z,100872.94
2022-10-22T03:32:26.459Z,100868.84
2022-10-22T03:32:57.997Z,100871.91
2022-10-22T03:33:29.473Z,100864.56
2022-10-22T03:34:01.117Z,100862.31
2022-10-22T03:34:32.903Z,100867.63
2022-10-22T03:35:05.635Z,100877.59
2022-10-22T03:35:42.795Z,100874.94
2022-10-22T03:36:14.355Z,100872.69
2022-10-22T03:36:46.614Z,100870.03
2022-10-22T03:37:18.315Z,100871.66
2022-10-22T03:37:50.417Z,100877.78
2022-10-22T03:38:21.970Z,100876.97
2022-10-22T03:38:54.002Z,100874.94
2022-10-22T03:39:26.163Z,100866.97
2022-10-22T03:39:57.807Z,100873.09
2022-10-22T03:40:29.393Z,100878.22
2022-10-22T03:41:00.970Z,100877.22
2022-10-22T03:41:33.122Z,100880.69
2022-10-22T03:42:05.981Z,100879.88
2022-10-22T03:42:37.521Z,100879.88
2022-10-22T03:43:09.138Z,100881.88
2022-10-22T03:43:41.149Z,100881.88
2022-10-22T03:44:13.057Z,100880.25
2022-10-22T03:44:44.692Z,100875.75
2022-10-22T03:45:16.315Z,100870.28
2022-10-22T03:45:47.838Z,100874.16
2022-10-22T03:46:20.342Z,100872.53
2022-10-22T03:46:52.074Z,100873.34
2022-10-22T03:47:26.657Z,100875.78
2022-10-22T03:47:58.216Z,100877.84
2022-10-22T03:48:29.940Z,100875.19
2022-10-22T03:49:01.473Z,100874.97
2022-10-22T03:49:33.046Z,100877.84
2022-10-22T03:50:05.359Z,100872.72
2022-10-22T03:50:36.873Z,100878.22
2022-10-22T03:51:08.572Z,100876.56
2022-10-22T03:51:40.069Z,100877.78
2022-10-22T03:52:13.744Z,100880.66
2022-10-22T03:52:45.277Z,100872.69
2022-10-22T03:53:16.831Z,100887.59
2022-10-22T03:53:48.457Z,100872.47
2022-10-22T03:54:20.015Z,100881.47
2022-10-22T03:54:51.590Z,100883.72
2022-10-22T03:55:23.117Z,100881.06
2022-10-22T03:55:54.642Z,100883.91
2022-10-22T03:56:26.157Z,100880.88
2022-10-22T03:56:57.805Z,100888.84
2022-10-22T03:57:29.447Z,100884.53
2022-10-22T03:58:01.008Z,100880.03
2022-10-22T03:58:32.498Z,100888.84
2022-10-22T03:59:04.320Z,100882.91
2022-10-22T03:59:37.413Z,100886.38
2022-10-22T04:00:10.735Z,100880.66
2022-10-22T04:00:42.894Z,100879.00
2022-10-22T04:01:14.618Z,100891.66
2022-10-22T04:01:46.205Z,100886.75
2022-10-22T04:02:17.759Z,100880.63
2022-10-22T04:02:49.430Z,100878.78
2022-10-22T04:03:20.964Z,100885.94
2022-10-22T04:03:53.091Z,100881.63
2022-10-22T04:04:24.647Z,100879.78
2022-10-22T04:04:56.129Z,100884.09
2022-10-22T04:05:28.054Z,100886.75
2022-10-22T04:06:08.594Z,100890.41
2022-10-22T04:06:40.081Z,100894.06
2022-10-22T04:07:11.627Z,100894.72
2022-10-22T04:07:43.323Z,100887.38
2022-10-22T04:08:15.531Z,100891.66
2022-10-22T04:08:47.944Z,100888.81
2022-10-22T04:09:19.489Z,100891.25
2022-10-22T04:09:51.113Z,100892.91
2022-10-22T04:10:22.606Z,100886.78
2022-10-22T04:10:54.153Z,100892.91
2022-10-22T04:11:25.662Z,100897.19
2022-10-22T04:11:57.174Z,100892.91
2022-10-22T04:12:28.704Z,100893.28
2022-10-22T04:13:00.241Z,100906.97
2022-10-22T04:13:31.965Z,100898.34
2022-10-22T04:14:03.505Z,100891.25
2022-10-22T04:14:35.440Z,100894.72
2022-10-22T04:15:07.703Z,100894.50
2022-10-22T04:15:39.678Z,100892.06
2022-10-22T04:16:12.368Z,100893.69
2022-10-22T04:16:43.875Z,100899.00
2022-10-22T04:17:15.592Z,100897.38
2022-10-22T04:17:47.111Z,100896.56
2022-10-22T04:18:22.730Z,100881.81
2022-10-22T04:18:54.230Z,100894.06
2022-10-22T04:19:25.763Z,100895.28
2022-10-22T04:19:57.252Z,100893.44
2022-10-22T04:20:28.742Z,100901.00
2022-10-22T04:21:00.265Z,100889.00
2022-10-22T04:21:31.802Z,100896.56
2022-10-22T04:22:03.508Z,100895.75
2022-10-22T04:22:35.318Z,100892.28
2022-10-22T04:23:06.916Z,100893.09
2022-10-22T04:23:38.847Z,100896.97
2022-10-22T04:24:10.773Z,100893.28
2022-10-22T04:24:42.369Z,100889.63
2022-10-22T04:25:13.916Z,100892.91
2022-10-22T04:25:45.428Z,100900.66
2022-10-22T04:26:17.915Z,100894.53
2022-10-22T04:26:49.433Z,100893.91
2022-10-22T04:27:21.068Z,100894.94
2022-10-22T04:27:52.570Z,100893.91
2022-10-22T04:28:24.140Z,100894.72
2022-10-22T04:28:55.677Z,100899.41
2022-10-22T04:29:27.283Z,100897.16
2022-10-22T04:29:59.008Z,100897.38
2022-10-22T04:30:30.479Z,100890.03
2022-10-22T04:31:11.453Z,100896.16
2022-10-22T04:31:42.930Z,100897.78
2022-10-22T04:32:14.455Z,100894.13
2022-10-22T04:32:45.965Z,100894.94
2022-10-22T04:33:18.565Z,100897.75
2022-10-22T04:33:54.779Z,100893.69
2022-10-22T04:34:29.631Z,100893.91
2022-10-22T04:35:01.218Z,100895.69
2022-10-22T04:35:32.785Z,100899.81
2022-10-22T04:36:20.758Z,100899.38
2022-10-22T04:36:52.297Z,100903.28
2022-10-22T04:37:24.775Z,100892.47
2022-10-22T04:37:56.400Z,100898.19
2022-10-22T04:38:27.925Z,100899.03
2022-10-22T04:39:01.377Z,100894.97
2022-10-22T04:39:32.918Z,100894.16
2022-10-22T04:40:05.084Z,100897.03
2022-10-22T04:40:36.681Z,100894.31
2022-10-22T04:41:16.818Z,100896.16
2022-10-22T04:41:48.344Z,100891.50
2022-10-22T04:42:20.008Z,100900.28
2022-10-22T04:42:51.579Z,100903.97
2022-10-22T04:43:23.097Z,100896.81
2022-10-22T04:43:55.961Z,100903.56
2022-10-22T04:44:27.673Z,100895.81
2022-10-22T04:44:59.272Z,100894.56
2022-10-22T04:45:30.844Z,100896.22
2022-10-22T04:46:02.389Z,100896.63
2022-10-22T04:46:35.536Z,100897.63
2022-10-22T04:47:07.066Z,100896.22
2022-10-22T04:47:38.856Z,100898.66
2022-10-22T04:48:10.945Z,100900.28
2022-10-22T04:48:43.658Z,100902.34
2022-10-22T04:49:15.228Z,100897.63
2022-10-22T04:49:46.762Z,100902.34
2022-10-22T04:50:18.443Z,100898.03
2022-10-22T04:50:50.049Z,100899.06
2022-10-22T04:51:22.949Z,100900.69
2022-10-22T04:51:54.629Z,100897.63
2022-10-22T04:52:26.118Z,100899.06
2022-10-22T04:52:57.704Z,100892.94
2022-10-22T04:53:29.224Z,100890.09
2022-10-22T04:54:00.841Z,100890.69
2022-10-22T04:54:33.238Z,100900.91
2022-10-22T04:55:05.364Z,100898.50
2022-10-22T04:55:36.896Z,100903.22
2022-10-22T04:56:16.844Z,100901.78
2022-10-22T04:56:48.477Z,100903.63
2022-10-22T04:57:20.148Z,100897.28
2022-10-22T04:57:51.681Z,100896.66
2022-10-22T04:58:23.227Z,100895.84
2022-10-22T04:59:03.315Z,100905.44
2022-10-22T04:59:34.808Z,100900.53
2022-10-22T05:00:07.115Z,100901.78
2022-10-22T05:00:38.653Z,100899.53
2022-10-22T05:01:20.726Z,100909.53
2022-10-22T05:01:52.263Z,100904.22
2022-10-22T05:02:23.867Z,100903.22
2022-10-22T05:02:55.384Z,100907.28
2022-10-22T05:03:26.902Z,100900.75
2022-10-22T05:04:01.086Z,100901.16
2022-10-22T05:04:32.703Z,100906.47
2022-10-22T05:05:04.515Z,100904.44
2022-10-22T05:05:36.176Z,100902.78
2022-10-22T05:06:08.888Z,100908.09
2022-10-22T05:06:40.661Z,100907.69
2022-10-22T05:07:12.225Z,100910.16
2022-10-22T05:07:43.938Z,100914.25
2022-10-22T05:08:15.690Z,100909.34
2022-10-22T05:08:47.966Z,100912.00
2022-10-22T05:09:20.679Z,100903.22
2022-10-22T05:09:53.470Z,100912.19
2022-10-22T05:10:25.022Z,100908.53
2022-10-22T05:10:56.550Z,100913.44
2022-10-22T05:11:31.149Z,100921.44
2022-10-22T05:12:02.699Z,100914.28
2022-10-22T05:12:35.206Z,100919.59
2022-10-22T05:13:06.740Z,100921.63
2022-10-22T05:13:38.833Z,100916.72
2022-10-22T05:14:10.633Z,100911.41
2022-10-22T05:14:44.681Z,100913.03
2022-10-22T05:15:16.585Z,100917.34
2022-10-22T05:15:48.104Z,100913.25
2022-10-22T05:16:19.814Z,100915.09
2022-10-22T05:16:52.054Z,100911.22
2022-10-22T05:17:23.587Z,100914.28
2022-10-22T05:17:55.136Z,100913.84
2022-10-22T05:18:26.742Z,100915.50
2022-10-22T05:18:59.793Z,100908.13
2022-10-22T05:19:33.299Z,100917.53
2022-10-22T05:20:05.758Z,100909.56
2022-10-22T05:20:40.576Z,100911.81
2022-10-22T05:21:16.960Z,100915.09
2022-10-22T05:21:48.526Z,100907.09
2022-10-22T05:22:20.015Z,100912.22
2022-10-22T05:22:51.560Z,100906.28
2022-10-22T05:23:23.259Z,100909.75
2022-10-22T05:23:55.762Z,100908.13
2022-10-22T05:24:29.097Z,100912.44
2022-10-22T05:25:00.947Z,100913.25
2022-10-22T05:25:32.588Z,100917.53
2022-10-22T05:26:08.765Z,100909.75
2022-10-22T05:26:40.293Z,100912.19
2022-10-22T05:27:11.818Z,100913.66
2022-10-22T05:27:43.586Z,100912.63
2022-10-22T05:28:15.299Z,100913.44
2022-10-22T05:28:48.336Z,100915.91
2022-10-22T05:29:20.241Z,100908.53
2022-10-22T05:29:51.954Z,100912.44
2022-10-22T05:30:23.517Z,100919.97
2022-10-22T05:30:59.188Z,100917.53
2022-10-22T05:31:30.702Z,100920.81
2022-10-22T05:32:02.222Z,100919.19
2022-10-22T05:32:35.457Z,100916.72
2022-10-22T05:33:06.948Z,100916.94
2022-10-22T05:33:38.899Z,100911.41
2022-10-22T05:34:10.589Z,100914.25
2022-10-22T05:34:42.137Z,100922.03
2022-10-22T05:35:13.720Z,100922.44
2022-10-22T05:35:46.787Z,100923.22
2022-10-22T05:36:21.606Z,100928.16
2022-10-22T05:36:53.159Z,100924.06
2022-10-22T05:37:24.672Z,100925.06
2022-10-22T05:38:28.749Z,100928.97
2022-10-22T05:39:00.361Z,100925.25
2022-10-22T05:39:31.889Z,100922.38
2022-10-22T05:40:18.980Z,100929.31
2022-10-22T05:41:07.462Z,100928.72
2022-10-22T05:41:39.181Z,100927.25
2022-10-22T05:42:10.676Z,100932.59
2022-10-22T05:42:42.387Z,100927.69
2022-10-22T05:43:14.148Z,100926.22
2022-10-22T05:43:46.234Z,100927.88
2022-10-22T05:44:17.794Z,100928.50
2022-10-22T05:44:49.347Z,100925.22
2022-10-22T05:45:20.891Z,100928.53
2022-10-22T05:45:52.498Z,100928.50
2022-10-22T05:46:26.194Z,100924.59
2022-10-22T05:46:57.705Z,100917.84
2022-10-22T05:47:30.336Z,100921.09
2022-10-22T05:48:01.912Z,100918.84
2022-10-22T05:48:33.776Z,100925.97
2022-10-22T05:49:08.120Z,100920.22
2022-10-22T05:49:39.686Z,100924.09
2022-10-22T05:50:11.250Z,100928.38
2022-10-22T05:50:42.762Z,100925.97
2022-10-22T05:51:14.335Z,100924.56
2022-10-22T05:51:46.832Z,100921.50
2022-10-22T05:52:18.407Z,100930.03
2022-10-22T05:52:51.984Z,100934.56
2022-10-22T05:53:23.695Z,100928.38
2022-10-22T05:53:57.405Z,100929.22
2022-10-22T05:54:28.941Z,100932.88
2022-10-22T05:55:00.551Z,100931.25
2022-10-22T05:55:40.594Z,100934.56
2022-10-22T05:56:15.236Z,100935.75
2022-10-22T05:56:46.871Z,100939.22
2022-10-22T05:57:18.453Z,100932.88
2022-10-22T05:57:50.254Z,100935.75
2022-10-22T05:58:21.907Z,100937.81
2022-10-22T05:58:54.029Z,100940.06
2022-10-22T05:59:25.604Z,100932.50
2022-10-22T05:59:57.095Z,100940.69
2022-10-22T06:00:28.797Z,100941.09
2022-10-22T06:01:19.473Z,100946.84
2022-10-22T06:01:51.151Z,100943.91
2022-10-22T06:02:22.774Z,100940.25
2022-10-22T06:02:54.298Z,100937.81
2022-10-22T06:03:25.986Z,100946.00
2022-10-22T06:03:59.536Z,100933.72
2022-10-22T06:04:31.093Z,100938.44
2022-10-22T06:05:02.672Z,100942.72
2022-10-22T06:05:37.684Z,100941.91
2022-10-22T06:06:34.199Z,100940.25
2022-10-22T06:07:05.735Z,100942.28
2022-10-22T06:07:37.357Z,100942.72
2022-10-22T06:08:16.745Z,100941.69
2022-10-22T06:08:51.986Z,100942.72
2022-10-22T06:09:30.177Z,100944.34
2022-10-22T06:10:02.181Z,100942.09
2022-10-22T06:10:33.697Z,100939.84
2022-10-22T06:11:05.386Z,100943.06
2022-10-22T06:11:37.062Z,100949.63
2022-10-22T06:12:10.922Z,100944.75
2022-10-22T06:12:42.855Z,100939.63
2022-10-22T06:13:14.575Z,100945.16
2022-10-22T06:13:46.421Z,100942.72
2022-10-22T06:14:19.083Z,100947.00
2022-10-22T06:14:50.615Z,100951.31
2022-10-22T06:15:22.124Z,100946.78
2022-10-22T06:15:53.713Z,100945.38
2022-10-22T06:16:25.281Z,100948.63
2022-10-22T06:16:59.801Z,100951.31
2022-10-22T06:17:31.626Z,100950.50
2022-10-22T06:18:03.465Z,100951.13
2022-10-22T06:18:35.086Z,100957.88
2022-10-22T06:19:07.823Z,100957.06
2022-10-22T06:19:39.335Z,100948.25
2022-10-22T06:20:11.516Z,100950.09
2022-10-22T06:20:43.771Z,100964.00
2022-10-22T06:21:16.149Z,100951.72
2022-10-22T06:21:48.434Z,100957.06
2022-10-22T06:22:19.929Z,100961.16
2022-10-22T06:22:51.421Z,100956.25
2022-10-22T06:23:22.975Z,100962.00
2022-10-22T06:23:56.623Z,100961.56
2022-10-22T06:24:28.118Z,100966.88
2022-10-22T06:24:59.681Z,100966.06
2022-10-22T06:25:31.254Z,100958.28
2022-10-22T06:26:03.288Z,100971.59
2022-10-22T06:26:35.285Z,100966.88
2022-10-22T06:27:06.831Z,100966.88
2022-10-22T06:27:38.349Z,100968.31
2022-10-22T06:28:10.170Z,100969.75
2022-10-22T06:28:41.697Z,100961.13